VOI1181 MMAA-MMMX
Flight info
| Callsign | VOI1181 |
|---|---|
| Flight time | 0h 47m |
| Altitude | 32000 |
| Route | ALNU1B/28 ALNUS UT117 ESPOS ESPOS4B |
| Aircraft | A20N/M-SDE2E3FGHIJ1RWXY/L |
Departure
| Time | 2026-04-24 02:22 |
|---|---|
| Airport | General Juan N. Álvarez International Airport (MMAA) |
Arrival
| Time | 2026-04-24 03:09 |
|---|---|
| Airport | Mexico City Benito Juárez International Airport (MMMX) |
| Time | Latitude | Longitude | Altitude | Speed | Heading |
|---|---|---|---|---|---|
| 2026-04-24 01:52 | 16.76126 | -99.75552 | 21 ft | 0 kts | 24° |
| 2026-04-24 01:53 | 16.76148 | -99.75619 | 21 ft | 0 kts | 27° |
| 2026-04-24 02:07 | 16.76142 | -99.75622 | 22 ft | 2 kts | 26° |
| 2026-04-24 02:07 | 16.76128 | -99.75630 | 22 ft | 2 kts | 27° |
| 2026-04-24 02:07 | 16.76113 | -99.75638 | 22 ft | 2 kts | 27° |
| 2026-04-24 02:08 | 16.76103 | -99.75643 | 21 ft | 2 kts | 28° |
| 2026-04-24 02:08 | 16.76100 | -99.75645 | 21 ft | 2 kts | 28° |
| 2026-04-24 02:08 | 16.76086 | -99.75653 | 22 ft | 2 kts | 33° |
| 2026-04-24 02:09 | 16.76073 | -99.75664 | 22 ft | 2 kts | 59° |
| 2026-04-24 02:09 | 16.76070 | -99.75676 | 23 ft | 1 kts | 106° |
| 2026-04-24 02:09 | 16.76071 | -99.75678 | 23 ft | 1 kts | 107° |
| 2026-04-24 02:09 | 16.76071 | -99.75679 | 23 ft | 0 kts | 107° |
| 2026-04-24 02:11 | 16.76065 | -99.75658 | 22 ft | 7 kts | 107° |
| 2026-04-24 02:11 | 16.76057 | -99.75632 | 21 ft | 0 kts | 108° |
| 2026-04-24 02:12 | 16.76056 | -99.75631 | 21 ft | 0 kts | 108° |
| 2026-04-24 02:12 | 16.76056 | -99.75629 | 23 ft | 0 kts | 108° |
| 2026-04-24 02:13 | 16.76055 | -99.75627 | 22 ft | 2 kts | 108° |
| 2026-04-24 02:13 | 16.76039 | -99.75576 | 20 ft | 13 kts | 108° |
| 2026-04-24 02:14 | 16.76018 | -99.75513 | 20 ft | 5 kts | 109° |
| 2026-04-24 02:14 | 16.76002 | -99.75461 | 23 ft | 10 kts | 108° |
| 2026-04-24 02:14 | 16.75976 | -99.75383 | 20 ft | 12 kts | 121° |
| 2026-04-24 02:14 | 16.75898 | -99.75332 | 22 ft | 14 kts | 129° |
| 2026-04-24 02:15 | 16.75860 | -99.75227 | 20 ft | 16 kts | 108° |
| 2026-04-24 02:15 | 16.75823 | -99.75109 | 21 ft | 15 kts | 108° |
| 2026-04-24 02:15 | 16.75789 | -99.75006 | 19 ft | 17 kts | 109° |
| 2026-04-24 02:15 | 16.75750 | -99.74882 | 19 ft | 19 kts | 108° |
| 2026-04-24 02:16 | 16.75708 | -99.74748 | 21 ft | 20 kts | 108° |
| 2026-04-24 02:16 | 16.75662 | -99.74600 | 20 ft | 23 kts | 109° |
| 2026-04-24 02:16 | 16.75612 | -99.74439 | 21 ft | 24 kts | 108° |
| 2026-04-24 02:16 | 16.75558 | -99.74266 | 20 ft | 26 kts | 108° |
| 2026-04-24 02:17 | 16.75500 | -99.74082 | 20 ft | 27 kts | 109° |
| 2026-04-24 02:17 | 16.75440 | -99.73887 | 22 ft | 29 kts | 108° |
| 2026-04-24 02:17 | 16.75378 | -99.73694 | 20 ft | 21 kts | 108° |
| 2026-04-24 02:17 | 16.75330 | -99.73538 | 20 ft | 24 kts | 108° |
| 2026-04-24 02:18 | 16.75279 | -99.73374 | 20 ft | 21 kts | 111° |
| 2026-04-24 02:18 | 16.75172 | -99.73345 | 21 ft | 11 kts | 200° |
| 2026-04-24 02:18 | 16.75166 | -99.73347 | 21 ft | 0 kts | 200° |
| 2026-04-24 02:19 | 16.75149 | -99.73354 | 21 ft | 9 kts | 200° |
| 2026-04-24 02:19 | 16.75100 | -99.73447 | 21 ft | 15 kts | 286° |
| 2026-04-24 02:20 | 16.75102 | -99.73455 | 22 ft | 0 kts | 286° |
| 2026-04-24 02:21 | 16.75149 | -99.73605 | 19 ft | 65 kts | 288° |
| 2026-04-24 02:21 | 16.75385 | -99.74346 | 20 ft | 146 kts | 288° |
| 2026-04-24 02:21 | 16.75763 | -99.75536 | 230 ft | 192 kts | 288° |
| 2026-04-24 02:22 | 16.76205 | -99.77004 | 664 ft | 233 kts | 287° |
| 2026-04-24 02:22 | 16.76695 | -99.78750 | 1258 ft | 267 kts | 285° |
| 2026-04-24 02:22 | 16.77238 | -99.80687 | 2051 ft | 286 kts | 287° |
| 2026-04-24 02:22 | 16.77846 | -99.82671 | 2996 ft | 294 kts | 288° |
| 2026-04-24 02:23 | 16.78497 | -99.84646 | 4228 ft | 276 kts | 289° |
| 2026-04-24 02:23 | 16.79173 | -99.86466 | 5058 ft | 268 kts | 299° |
| 2026-04-24 02:23 | 16.80403 | -99.87912 | 5574 ft | 270 kts | 325° |
| 2026-04-24 02:23 | 16.82126 | -99.88675 | 5878 ft | 272 kts | 344° |
| 2026-04-24 02:24 | 16.83966 | -99.89170 | 6037 ft | 273 kts | 346° |
| 2026-04-24 02:24 | 16.85809 | -99.89645 | 6118 ft | 273 kts | 346° |
| 2026-04-24 02:24 | 16.87652 | -99.90128 | 6117 ft | 273 kts | 345° |
| 2026-04-24 02:24 | 16.89495 | -99.90624 | 6118 ft | 274 kts | 345° |
| 2026-04-24 02:25 | 16.91342 | -99.91132 | 6118 ft | 276 kts | 345° |
| 2026-04-24 02:25 | 16.93192 | -99.91645 | 6117 ft | 274 kts | 345° |
| 2026-04-24 02:25 | 16.95050 | -99.92034 | 6103 ft | 274 kts | 359° |
| 2026-04-24 02:25 | 16.96914 | -99.91633 | 6314 ft | 278 kts | 26° |
| 2026-04-24 02:26 | 16.98586 | -99.90605 | 7113 ft | 279 kts | 31° |
| 2026-04-24 02:26 | 17.00248 | -99.89557 | 8221 ft | 280 kts | 31° |
| 2026-04-24 02:26 | 17.01936 | -99.88497 | 9180 ft | 286 kts | 31° |
| 2026-04-24 02:26 | 17.03656 | -99.87417 | 10121 ft | 291 kts | 31° |
| 2026-04-24 02:27 | 17.05430 | -99.86302 | 10794 ft | 308 kts | 31° |
| 2026-04-24 02:27 | 17.07336 | -99.85103 | 11155 ft | 332 kts | 31° |
| 2026-04-24 02:27 | 17.09364 | -99.83826 | 11705 ft | 346 kts | 31° |
| 2026-04-24 02:27 | 17.11435 | -99.82520 | 12578 ft | 350 kts | 31° |
| 2026-04-24 02:28 | 17.13530 | -99.81199 | 13411 ft | 355 kts | 31° |
| 2026-04-24 02:28 | 17.15629 | -99.79875 | 14195 ft | 360 kts | 31° |
| 2026-04-24 02:28 | 17.17820 | -99.78493 | 14971 ft | 366 kts | 31° |
| 2026-04-24 02:28 | 17.20045 | -99.77268 | 15787 ft | 368 kts | 21° |
| 2026-04-24 02:29 | 17.22522 | -99.76549 | 16563 ft | 371 kts | 8° |
| 2026-04-24 02:29 | 17.25103 | -99.76419 | 17349 ft | 373 kts | 358° |
| 2026-04-24 02:29 | 17.27728 | -99.76487 | 17950 ft | 381 kts | 358° |
| 2026-04-24 02:29 | 17.30401 | -99.76552 | 18597 ft | 385 kts | 358° |
| 2026-04-24 02:30 | 17.33087 | -99.76613 | 19384 ft | 387 kts | 358° |
| 2026-04-24 02:30 | 17.35803 | -99.76672 | 19822 ft | 393 kts | 358° |
| 2026-04-24 02:30 | 17.38530 | -99.76731 | 19970 ft | 393 kts | 358° |
| 2026-04-24 02:30 | 17.41268 | -99.76789 | 20000 ft | 393 kts | 358° |
| 2026-04-24 02:31 | 17.44000 | -99.76847 | 20000 ft | 392 kts | 358° |
| 2026-04-24 02:31 | 17.46738 | -99.76905 | 20002 ft | 406 kts | 358° |
| 2026-04-24 02:31 | 17.49576 | -99.76966 | 19999 ft | 410 kts | 358° |
| 2026-04-24 02:31 | 17.52422 | -99.77027 | 20001 ft | 407 kts | 358° |
| 2026-04-24 02:32 | 17.55253 | -99.77088 | 19999 ft | 409 kts | 358° |
| 2026-04-24 02:32 | 17.58115 | -99.77149 | 20000 ft | 413 kts | 358° |
| 2026-04-24 02:32 | 17.60973 | -99.77210 | 20000 ft | 409 kts | 358° |
| 2026-04-24 02:32 | 17.63832 | -99.77271 | 19925 ft | 411 kts | 358° |
| 2026-04-24 02:33 | 17.66674 | -99.77332 | 20097 ft | 407 kts | 358° |
| 2026-04-24 02:33 | 17.69503 | -99.77392 | 20575 ft | 406 kts | 358° |
| 2026-04-24 02:33 | 17.72323 | -99.77452 | 21276 ft | 406 kts | 358° |
| 2026-04-24 02:33 | 17.75142 | -99.77512 | 22025 ft | 404 kts | 358° |
| 2026-04-24 02:34 | 17.77958 | -99.77572 | 22778 ft | 402 kts | 358° |
| 2026-04-24 02:34 | 17.80748 | -99.77666 | 23523 ft | 400 kts | 357° |
| 2026-04-24 02:34 | 17.83520 | -99.77819 | 24272 ft | 398 kts | 356° |
| 2026-04-24 02:34 | 17.86281 | -99.77985 | 25023 ft | 396 kts | 356° |
| 2026-04-24 02:35 | 17.88987 | -99.78144 | 25759 ft | 393 kts | 356° |
| 2026-04-24 02:35 | 17.91705 | -99.78298 | 26507 ft | 389 kts | 356° |
| 2026-04-24 02:35 | 17.94391 | -99.78446 | 27252 ft | 384 kts | 356° |
| 2026-04-24 02:35 | 17.97045 | -99.78590 | 27991 ft | 379 kts | 356° |
| 2026-04-24 02:36 | 17.99655 | -99.78729 | 28738 ft | 372 kts | 356° |
| 2026-04-24 02:36 | 18.02213 | -99.78866 | 29485 ft | 364 kts | 356° |
| 2026-04-24 02:36 | 18.04707 | -99.79000 | 30216 ft | 354 kts | 356° |
| 2026-04-24 02:36 | 18.07137 | -99.79130 | 30953 ft | 343 kts | 356° |
| 2026-04-24 02:37 | 18.09499 | -99.79257 | 31486 ft | 340 kts | 356° |
| 2026-04-24 02:37 | 18.11878 | -99.79384 | 31669 ft | 345 kts | 356° |
| 2026-04-24 02:37 | 18.14289 | -99.79514 | 31918 ft | 349 kts | 356° |
| 2026-04-24 02:37 | 18.16746 | -99.79646 | 32000 ft | 358 kts | 356° |
| 2026-04-24 02:38 | 18.21768 | -99.79916 | 31999 ft | 361 kts | 356° |
| 2026-04-24 02:38 | 18.26776 | -99.80184 | 32000 ft | 360 kts | 356° |
| 2026-04-24 02:39 | 18.31782 | -99.80454 | 32000 ft | 360 kts | 356° |
| 2026-04-24 02:39 | 18.36777 | -99.80722 | 32000 ft | 359 kts | 356° |
| 2026-04-24 02:40 | 18.41722 | -99.80988 | 32000 ft | 358 kts | 356° |
| 2026-04-24 02:40 | 18.46720 | -99.81258 | 32000 ft | 360 kts | 356° |
| 2026-04-24 02:41 | 18.51735 | -99.81528 | 32000 ft | 361 kts | 356° |
| 2026-04-24 02:41 | 18.56721 | -99.81797 | 31556 ft | 358 kts | 356° |
| 2026-04-24 02:42 | 18.59211 | -99.81932 | 31100 ft | 358 kts | 356° |
| 2026-04-24 02:42 | 18.61707 | -99.82066 | 30541 ft | 360 kts | 356° |
| 2026-04-24 02:42 | 18.64209 | -99.82129 | 30133 ft | 358 kts | 3° |
| 2026-04-24 02:42 | 18.66674 | -99.81788 | 30021 ft | 359 kts | 12° |
| 2026-04-24 02:43 | 18.71357 | -99.79830 | 29812 ft | 364 kts | 32° |
| 2026-04-24 02:43 | 18.73396 | -99.78267 | 29659 ft | 361 kts | 41° |
| 2026-04-24 02:43 | 18.75151 | -99.76386 | 29502 ft | 358 kts | 50° |
| 2026-04-24 02:44 | 18.76568 | -99.74279 | 29159 ft | 356 kts | 60° |
| 2026-04-24 02:44 | 18.77665 | -99.71944 | 28644 ft | 357 kts | 66° |
| 2026-04-24 02:44 | 18.78682 | -99.69518 | 27856 ft | 366 kts | 66° |
| 2026-04-24 02:44 | 18.79732 | -99.67030 | 26971 ft | 376 kts | 66° |
| 2026-04-24 02:45 | 18.80815 | -99.64477 | 26092 ft | 386 kts | 66° |
| 2026-04-24 02:45 | 18.81912 | -99.61890 | 25996 ft | 391 kts | 66° |
| 2026-04-24 02:45 | 18.83050 | -99.59206 | 26001 ft | 409 kts | 66° |
| 2026-04-24 02:45 | 18.84233 | -99.56416 | 26001 ft | 425 kts | 66° |
| 2026-04-24 02:46 | 18.85463 | -99.53512 | 26001 ft | 440 kts | 66° |
| 2026-04-24 02:46 | 18.86045 | -99.52136 | 26000 ft | 446 kts | 66° |
| 2026-04-24 02:46 | 18.87325 | -99.49114 | 26000 ft | 453 kts | 66° |
| 2026-04-24 02:46 | 18.88605 | -99.46088 | 26000 ft | 448 kts | 66° |
| 2026-04-24 02:47 | 18.89859 | -99.43119 | 26000 ft | 449 kts | 66° |
| 2026-04-24 02:47 | 18.91059 | -99.40279 | 26001 ft | 454 kts | 66° |
| 2026-04-24 02:47 | 18.92344 | -99.37236 | 25999 ft | 453 kts | 66° |
| 2026-04-24 02:47 | 18.93607 | -99.34198 | 26000 ft | 451 kts | 66° |
| 2026-04-24 02:48 | 18.94849 | -99.31157 | 26000 ft | 451 kts | 66° |
| 2026-04-24 02:48 | 18.96094 | -99.28103 | 26000 ft | 452 kts | 66° |
| 2026-04-24 02:48 | 18.97334 | -99.25059 | 25007 ft | 450 kts | 65° |
| 2026-04-24 02:48 | 18.98566 | -99.22029 | 25312 ft | 450 kts | 65° |
| 2026-04-24 02:49 | 18.99813 | -99.18979 | 25646 ft | 454 kts | 65° |
| 2026-04-24 02:49 | 19.01070 | -99.15909 | 25969 ft | 456 kts | 64° |
| 2026-04-24 02:49 | 19.02330 | -99.12829 | 26013 ft | 456 kts | 64° |
| 2026-04-24 02:49 | 19.03588 | -99.09753 | 26008 ft | 456 kts | 64° |
| 2026-04-24 02:50 | 19.04847 | -99.06670 | 26005 ft | 456 kts | 64° |
| 2026-04-24 02:50 | 19.06105 | -99.03588 | 26001 ft | 456 kts | 64° |
| 2026-04-24 02:50 | 19.07361 | -99.00509 | 25997 ft | 456 kts | 64° |
| 2026-04-24 02:50 | 19.08619 | -98.97423 | 25998 ft | 456 kts | 64° |
| 2026-04-24 02:51 | 19.09875 | -98.94340 | 26005 ft | 457 kts | 64° |
| 2026-04-24 02:51 | 19.11117 | -98.91290 | 26009 ft | 456 kts | 64° |
| 2026-04-24 02:51 | 19.12366 | -98.88220 | 25860 ft | 454 kts | 64° |
| 2026-04-24 02:51 | 19.13666 | -98.85185 | 25450 ft | 453 kts | 60° |
| 2026-04-24 02:52 | 19.15262 | -98.82338 | 24993 ft | 447 kts | 53° |
| 2026-04-24 02:52 | 19.17038 | -98.79653 | 24468 ft | 442 kts | 53° |
| 2026-04-24 02:52 | 19.18787 | -98.76997 | 23885 ft | 439 kts | 53° |
| 2026-04-24 02:52 | 19.20520 | -98.74354 | 23262 ft | 435 kts | 53° |
| 2026-04-24 02:53 | 19.22237 | -98.71733 | 22671 ft | 430 kts | 53° |
| 2026-04-24 02:53 | 19.23935 | -98.69138 | 22090 ft | 425 kts | 53° |
| 2026-04-24 02:53 | 19.25048 | -98.67437 | 21692 ft | 423 kts | 53° |
| 2026-04-24 02:53 | 19.27065 | -98.64356 | 20978 ft | 418 kts | 53° |
| 2026-04-24 02:54 | 19.28709 | -98.61845 | 20421 ft | 413 kts | 53° |
| 2026-04-24 02:54 | 19.30336 | -98.59357 | 19843 ft | 409 kts | 53° |
| 2026-04-24 02:54 | 19.31928 | -98.56921 | 19285 ft | 406 kts | 53° |
| 2026-04-24 02:54 | 19.33525 | -98.54477 | 18716 ft | 402 kts | 54° |
| 2026-04-24 02:55 | 19.35094 | -98.52076 | 18389 ft | 387 kts | 54° |
| 2026-04-24 02:55 | 19.36582 | -98.49793 | 18156 ft | 365 kts | 54° |
| 2026-04-24 02:55 | 19.37983 | -98.47643 | 17956 ft | 345 kts | 53° |
| 2026-04-24 02:55 | 19.39319 | -98.45594 | 17669 ft | 334 kts | 53° |
| 2026-04-24 02:56 | 19.40701 | -98.43640 | 17250 ft | 329 kts | 43° |
| 2026-04-24 02:56 | 19.42536 | -98.42260 | 16779 ft | 323 kts | 22° |
| 2026-04-24 02:56 | 19.44692 | -98.41701 | 16334 ft | 318 kts | 0° |
| 2026-04-24 02:56 | 19.46845 | -98.41929 | 16149 ft | 306 kts | 350° |
| 2026-04-24 02:57 | 19.48934 | -98.42268 | 15796 ft | 302 kts | 351° |
| 2026-04-24 02:57 | 19.51002 | -98.42598 | 15459 ft | 298 kts | 351° |
| 2026-04-24 02:57 | 19.53013 | -98.42916 | 15306 ft | 288 kts | 351° |
| 2026-04-24 02:57 | 19.54980 | -98.43245 | 14996 ft | 284 kts | 345° |
| 2026-04-24 02:58 | 19.56735 | -98.44154 | 14585 ft | 283 kts | 320° |
| 2026-04-24 02:58 | 19.58006 | -98.45761 | 14029 ft | 289 kts | 304° |
| 2026-04-24 02:58 | 19.59123 | -98.47571 | 13409 ft | 296 kts | 303° |
| 2026-04-24 02:58 | 19.60230 | -98.49369 | 12790 ft | 295 kts | 303° |
| 2026-04-24 02:59 | 19.61354 | -98.51191 | 12194 ft | 293 kts | 303° |
| 2026-04-24 02:59 | 19.62449 | -98.52966 | 11896 ft | 281 kts | 303° |
| 2026-04-24 02:59 | 19.63127 | -98.54813 | 11786 ft | 261 kts | 276° |
| 2026-04-24 02:59 | 19.62965 | -98.56654 | 11786 ft | 247 kts | 258° |
| 2026-04-24 03:00 | 19.62606 | -98.58448 | 11780 ft | 249 kts | 259° |
| 2026-04-24 03:00 | 19.62273 | -98.60250 | 11779 ft | 248 kts | 260° |
| 2026-04-24 03:00 | 19.61961 | -98.62031 | 11774 ft | 239 kts | 261° |
| 2026-04-24 03:00 | 19.61675 | -98.63704 | 11770 ft | 222 kts | 261° |
| 2026-04-24 03:01 | 19.61409 | -98.65280 | 11784 ft | 219 kts | 261° |
| 2026-04-24 03:01 | 19.61140 | -98.66893 | 11784 ft | 222 kts | 261° |
| 2026-04-24 03:01 | 19.60873 | -98.68480 | 11789 ft | 217 kts | 261° |
| 2026-04-24 03:01 | 19.60606 | -98.70061 | 11799 ft | 219 kts | 261° |
| 2026-04-24 03:02 | 19.60337 | -98.71651 | 11790 ft | 218 kts | 261° |
| 2026-04-24 03:02 | 19.60070 | -98.73220 | 11560 ft | 216 kts | 261° |
| 2026-04-24 03:02 | 19.59807 | -98.74790 | 11169 ft | 217 kts | 261° |
| 2026-04-24 03:02 | 19.59541 | -98.76371 | 10737 ft | 218 kts | 260° |
| 2026-04-24 03:03 | 19.59361 | -98.77436 | 10417 ft | 216 kts | 259° |
| 2026-04-24 03:03 | 19.59002 | -98.78932 | 10028 ft | 206 kts | 250° |
| 2026-04-24 03:03 | 19.58435 | -98.80303 | 9885 ft | 202 kts | 242° |
| 2026-04-24 03:03 | 19.57751 | -98.81619 | 9856 ft | 205 kts | 239° |
| 2026-04-24 03:04 | 19.57015 | -98.82942 | 9865 ft | 210 kts | 238° |
| 2026-04-24 03:04 | 19.56270 | -98.84276 | 9862 ft | 209 kts | 238° |
| 2026-04-24 03:04 | 19.55540 | -98.85585 | 9610 ft | 204 kts | 238° |
| 2026-04-24 03:04 | 19.54912 | -98.86712 | 9185 ft | 203 kts | 238° |
| 2026-04-24 03:05 | 19.54200 | -98.87989 | 9015 ft | 198 kts | 238° |
| 2026-04-24 03:05 | 19.53496 | -98.89250 | 8948 ft | 201 kts | 237° |
| 2026-04-24 03:05 | 19.52780 | -98.90533 | 8925 ft | 203 kts | 237° |
| 2026-04-24 03:05 | 19.52059 | -98.91825 | 8943 ft | 204 kts | 237° |
| 2026-04-24 03:06 | 19.51339 | -98.93116 | 8951 ft | 204 kts | 238° |
| 2026-04-24 03:06 | 19.50613 | -98.94417 | 8970 ft | 205 kts | 238° |
| 2026-04-24 03:06 | 19.49887 | -98.95717 | 8984 ft | 205 kts | 238° |
| 2026-04-24 03:06 | 19.49166 | -98.97009 | 8996 ft | 201 kts | 238° |
| 2026-04-24 03:07 | 19.48496 | -98.98211 | 9001 ft | 177 kts | 238° |
| 2026-04-24 03:07 | 19.47883 | -98.99307 | 8908 ft | 172 kts | 237° |
| 2026-04-24 03:07 | 19.47287 | -99.00376 | 8674 ft | 162 kts | 237° |
| 2026-04-24 03:07 | 19.46746 | -99.01345 | 8409 ft | 148 kts | 237° |
| 2026-04-24 03:08 | 19.46234 | -99.02261 | 8131 ft | 141 kts | 238° |
| 2026-04-24 03:08 | 19.45272 | -99.03983 | 7682 ft | 135 kts | 240° |
| 2026-04-24 03:08 | 19.44796 | -99.04859 | 7450 ft | 138 kts | 239° |
| 2026-04-24 03:09 | 19.44311 | -99.05717 | 7310 ft | 131 kts | 239° |
| 2026-04-24 03:09 | 19.44049 | -99.06187 | 7302 ft | 30 kts | 241° |
| 2026-04-24 03:09 | 19.44036 | -99.06239 | 7301 ft | 3 kts | 272° |
| 2026-04-24 03:09 | 19.43972 | -99.06364 | 7302 ft | 23 kts | 253° |
| 2026-04-24 03:10 | 19.43964 | -99.06481 | 7303 ft | 15 kts | 269° |
| 2026-04-24 03:10 | 19.43963 | -99.06557 | 7304 ft | 1 kts | 270° |
| 2026-04-24 03:10 | 19.43963 | -99.06621 | 7305 ft | 14 kts | 269° |
| 2026-04-24 03:10 | 19.43962 | -99.06725 | 7306 ft | 10 kts | 269° |
| 2026-04-24 03:11 | 19.43962 | -99.06731 | 7306 ft | 0 kts | 269° |
| 2026-04-24 03:11 | 19.43962 | -99.06736 | 7306 ft | 4 kts | 269° |
| 2026-04-24 03:11 | 19.43961 | -99.06813 | 7306 ft | 12 kts | 269° |
| 2026-04-24 03:12 | 19.43993 | -99.06852 | 7306 ft | 10 kts | 359° |
| 2026-04-24 03:12 | 19.44081 | -99.06885 | 7306 ft | 16 kts | 300° |
| 2026-04-24 03:12 | 19.44046 | -99.06991 | 7306 ft | 17 kts | 240° |
| 2026-04-24 03:12 | 19.43984 | -99.07104 | 7306 ft | 18 kts | 239° |
| 2026-04-24 03:13 | 19.43914 | -99.07225 | 7305 ft | 20 kts | 238° |
| 2026-04-24 03:13 | 19.43841 | -99.07351 | 7305 ft | 20 kts | 240° |
| 2026-04-24 03:13 | 19.43768 | -99.07483 | 7304 ft | 21 kts | 239° |
| 2026-04-24 03:13 | 19.43693 | -99.07619 | 7304 ft | 22 kts | 239° |
| 2026-04-24 03:14 | 19.43614 | -99.07757 | 7304 ft | 22 kts | 239° |
| 2026-04-24 03:14 | 19.43535 | -99.07899 | 7304 ft | 22 kts | 240° |
| 2026-04-24 03:14 | 19.43455 | -99.08042 | 7305 ft | 23 kts | 239° |
| 2026-04-24 03:14 | 19.43380 | -99.08171 | 7304 ft | 18 kts | 239° |
| 2026-04-24 03:15 | 19.43350 | -99.08257 | 7304 ft | 12 kts | 290° |
| 2026-04-24 03:15 | 19.43407 | -99.08303 | 7304 ft | 0 kts | 330° |